sensor_id;sensor_type;location;lat;lon;timestamp;P1;durP1;ratioP1;P2;durP2;ratioP2
35223;SDS011;21367;51.930;8.112;2022-09-01T00:01:17;5.90;;;1.13;;
35223;SDS011;21367;51.930;8.112;2022-09-01T00:06:24;2.03;;;0.63;;
35223;SDS011;21367;51.930;8.112;2022-09-01T00:11:28;5.15;;;0.80;;
35223;SDS011;21367;51.930;8.112;2022-09-01T00:16:35;2.72;;;1.05;;
35223;SDS011;21367;51.930;8.112;2022-09-01T00:21:41;4.20;;;0.80;;
35223;SDS011;21367;51.930;8.112;2022-09-01T00:26:47;3.80;;;0.88;;
35223;SDS011;21367;51.930;8.112;2022-09-01T00:31:54;3.72;;;0.82;;
35223;SDS011;21367;51.930;8.112;2022-09-01T00:36:57;2.78;;;0.82;;
35223;SDS011;21367;51.930;8.112;2022-09-01T00:42:02;5.88;;;1.45;;
35223;SDS011;21367;51.930;8.112;2022-09-01T00:47:09;3.90;;;0.88;;
35223;SDS011;21367;51.930;8.112;2022-09-01T00:52:14;9.05;;;0.93;;
35223;SDS011;21367;51.930;8.112;2022-09-01T00:57:21;4.32;;;0.90;;
35223;SDS011;21367;51.930;8.112;2022-09-01T01:02:27;2.85;;;0.68;;
35223;SDS011;21367;51.930;8.112;2022-09-01T01:12:41;2.28;;;0.85;;
35223;SDS011;21367;51.930;8.112;2022-09-01T01:17:49;1.08;;;0.43;;
35223;SDS011;21367;51.930;8.112;2022-09-01T01:22:56;1.92;;;0.57;;
35223;SDS011;21367;51.930;8.112;2022-09-01T01:28:12;6.68;;;0.90;;
35223;SDS011;21367;51.930;8.112;2022-09-01T01:39:26;3.22;;;1.08;;
35223;SDS011;21367;51.930;8.112;2022-09-01T01:44:33;1.38;;;0.70;;
35223;SDS011;21367;51.930;8.112;2022-09-01T01:49:38;3.85;;;1.42;;
35223;SDS011;21367;51.930;8.112;2022-09-01T01:54:44;5.22;;;1.17;;
35223;SDS011;21367;51.930;8.112;2022-09-01T01:59:51;5.75;;;0.80;;
35223;SDS011;21367;51.930;8.112;2022-09-01T02:04:55;1.75;;;0.70;;
35223;SDS011;21367;51.930;8.112;2022-09-01T02:10:00;6.05;;;0.93;;
35223;SDS011;21367;51.930;8.112;2022-09-01T02:15:07;2.28;;;0.80;;
35223;SDS011;21367;51.930;8.112;2022-09-01T02:20:12;3.03;;;1.00;;
35223;SDS011;21367;51.930;8.112;2022-09-01T02:25:16;1.95;;;0.80;;
35223;SDS011;21367;51.930;8.112;2022-09-01T02:30:26;4.47;;;0.80;;
35223;SDS011;21367;51.930;8.112;2022-09-01T02:35:32;2.63;;;0.82;;
35223;SDS011;21367;51.930;8.112;2022-09-01T02:40:37;3.60;;;0.93;;
35223;SDS011;21367;51.930;8.112;2022-09-01T02:45:48;2.55;;;0.90;;
35223;SDS011;21367;51.930;8.112;2022-09-01T02:50:55;2.15;;;1.02;;
35223;SDS011;21367;51.930;8.112;2022-09-01T02:55:59;2.28;;;0.80;;
35223;SDS011;21367;51.930;8.112;2022-09-01T03:01:09;2.03;;;0.88;;
35223;SDS011;21367;51.930;8.112;2022-09-01T03:06:14;2.70;;;0.90;;
35223;SDS011;21367;51.930;8.112;2022-09-01T03:11:23;4.00;;;1.00;;
35223;SDS011;21367;51.930;8.112;2022-09-01T03:16:31;1.88;;;0.80;;
35223;SDS011;21367;51.930;8.112;2022-09-01T03:21:35;2.15;;;0.80;;
35223;SDS011;21367;51.930;8.112;2022-09-01T03:26:42;2.50;;;0.70;;
35223;SDS011;21367;51.930;8.112;2022-09-01T03:31:49;1.92;;;0.90;;
35223;SDS011;21367;51.930;8.112;2022-09-01T03:36:53;4.43;;;1.17;;
35223;SDS011;21367;51.930;8.112;2022-09-01T03:42:01;3.58;;;1.08;;
35223;SDS011;21367;51.930;8.112;2022-09-01T03:47:07;9.07;;;1.17;;
35223;SDS011;21367;51.930;8.112;2022-09-01T03:52:14;5.85;;;1.17;;
35223;SDS011;21367;51.930;8.112;2022-09-01T03:57:18;3.55;;;1.20;;
35223;SDS011;21367;51.930;8.112;2022-09-01T04:02:25;4.57;;;1.13;;
35223;SDS011;21367;51.930;8.112;2022-09-01T04:07:30;6.10;;;1.20;;
35223;SDS011;21367;51.930;8.112;2022-09-01T04:12:33;3.03;;;1.50;;
35223;SDS011;21367;51.930;8.112;2022-09-01T04:17:40;3.45;;;1.10;;
35223;SDS011;21367;51.930;8.112;2022-09-01T04:22:56;6.53;;;1.33;;
35223;SDS011;21367;51.930;8.112;2022-09-01T04:28:04;7.00;;;1.30;;
35223;SDS011;21367;51.930;8.112;2022-09-01T04:33:16;4.35;;;1.38;;
35223;SDS011;21367;51.930;8.112;2022-09-01T04:38:22;4.18;;;1.58;;
35223;SDS011;21367;51.930;8.112;2022-09-01T04:43:29;9.10;;;1.48;;
35223;SDS011;21367;51.930;8.112;2022-09-01T04:48:35;3.60;;;1.30;;
35223;SDS011;21367;51.930;8.112;2022-09-01T04:53:42;4.68;;;1.33;;
35223;SDS011;21367;51.930;8.112;2022-09-01T04:58:49;4.00;;;1.43;;
35223;SDS011;21367;51.930;8.112;2022-09-01T05:03:57;2.42;;;1.00;;
35223;SDS011;21367;51.930;8.112;2022-09-01T05:09:13;4.78;;;1.30;;
35223;SDS011;21367;51.930;8.112;2022-09-01T05:14:30;11.00;;;2.40;;
35223;SDS011;21367;51.930;8.112;2022-09-01T05:19:38;18.90;;;1.95;;
35223;SDS011;21367;51.930;8.112;2022-09-01T05:24:43;10.15;;;1.60;;
35223;SDS011;21367;51.930;8.112;2022-09-01T05:29:48;7.93;;;1.77;;
35223;SDS011;21367;51.930;8.112;2022-09-01T05:34:56;8.13;;;1.48;;
35223;SDS011;21367;51.930;8.112;2022-09-01T05:40:00;4.95;;;1.08;;
35223;SDS011;21367;51.930;8.112;2022-09-01T05:45:06;7.78;;;1.55;;
35223;SDS011;21367;51.930;8.112;2022-09-01T05:50:15;50.00;;;2.92;;
35223;SDS011;21367;51.930;8.112;2022-09-01T05:55:19;44.63;;;3.58;;
35223;SDS011;21367;51.930;8.112;2022-09-01T06:00:27;14.95;;;2.78;;
35223;SDS011;21367;51.930;8.112;2022-09-01T06:05:37;20.08;;;2.70;;
35223;SDS011;21367;51.930;8.112;2022-09-01T06:10:44;6.38;;;1.35;;
35223;SDS011;21367;51.930;8.112;2022-09-01T06:15:50;6.85;;;1.40;;
35223;SDS011;21367;51.930;8.112;2022-09-01T06:21:01;6.13;;;1.30;;
35223;SDS011;21367;51.930;8.112;2022-09-01T06:26:15;4.32;;;1.40;;
35223;SDS011;21367;51.930;8.112;2022-09-01T06:31:19;4.75;;;1.95;;
35223;SDS011;21367;51.930;8.112;2022-09-01T06:36:28;5.07;;;1.60;;
35223;SDS011;21367;51.930;8.112;2022-09-01T06:41:33;7.30;;;1.63;;
35223;SDS011;21367;51.930;8.112;2022-09-01T06:46:44;5.13;;;1.63;;
35223;SDS011;21367;51.930;8.112;2022-09-01T06:51:50;9.77;;;1.70;;
35223;SDS011;21367;51.930;8.112;2022-09-01T06:56:57;5.25;;;1.30;;
35223;SDS011;21367;51.930;8.112;2022-09-01T07:02:03;5.35;;;1.55;;
35223;SDS011;21367;51.930;8.112;2022-09-01T07:07:34;17.90;;;2.20;;
35223;SDS011;21367;51.930;8.112;2022-09-01T07:12:56;10.18;;;1.75;;
35223;SDS011;21367;51.930;8.112;2022-09-01T07:18:01;6.95;;;1.70;;
35223;SDS011;21367;51.930;8.112;2022-09-01T07:23:09;4.73;;;1.60;;
35223;SDS011;21367;51.930;8.112;2022-09-01T07:28:14;7.65;;;2.03;;
35223;SDS011;21367;51.930;8.112;2022-09-01T07:33:19;2.72;;;1.20;;
35223;SDS011;21367;51.930;8.112;2022-09-01T07:38:35;8.85;;;1.20;;
35223;SDS011;21367;51.930;8.112;2022-09-01T07:43:39;8.07;;;1.40;;
35223;SDS011;21367;51.930;8.112;2022-09-01T07:49:10;4.13;;;1.35;;
35223;SDS011;21367;51.930;8.112;2022-09-01T07:54:16;5.07;;;1.23;;
35223;SDS011;21367;51.930;8.112;2022-09-01T07:59:23;6.20;;;1.25;;
35223;SDS011;21367;51.930;8.112;2022-09-01T08:04:35;8.93;;;1.23;;
35223;SDS011;21367;51.930;8.112;2022-09-01T08:09:43;5.87;;;1.27;;
35223;SDS011;21367;51.930;8.112;2022-09-01T08:14:49;2.95;;;1.10;;
35223;SDS011;21367;51.930;8.112;2022-09-01T08:19:53;4.00;;;1.17;;
35223;SDS011;21367;51.930;8.112;2022-09-01T08:25:23;3.15;;;1.10;;
35223;SDS011;21367;51.930;8.112;2022-09-01T08:30:28;9.88;;;1.23;;
35223;SDS011;21367;51.930;8.112;2022-09-01T08:35:33;9.23;;;1.30;;
35223;SDS011;21367;51.930;8.112;2022-09-01T08:40:40;3.53;;;1.08;;
35223;SDS011;21367;51.930;8.112;2022-09-01T08:45:46;6.88;;;1.05;;
35223;SDS011;21367;51.930;8.112;2022-09-01T08:50:58;6.32;;;1.10;;
35223;SDS011;21367;51.930;8.112;2022-09-01T08:56:28;6.30;;;1.00;;
35223;SDS011;21367;51.930;8.112;2022-09-01T09:01:37;7.40;;;1.40;;
35223;SDS011;21367;51.930;8.112;2022-09-01T09:06:49;2.97;;;1.13;;
35223;SDS011;21367;51.930;8.112;2022-09-01T09:12:14;3.13;;;0.95;;
35223;SDS011;21367;51.930;8.112;2022-09-01T09:17:35;7.93;;;1.42;;
35223;SDS011;21367;51.930;8.112;2022-09-01T09:22:42;5.82;;;1.30;;
35223;SDS011;21367;51.930;8.112;2022-09-01T09:27:52;5.68;;;1.15;;
35223;SDS011;21367;51.930;8.112;2022-09-01T09:32:57;9.10;;;1.00;;
35223;SDS011;21367;51.930;8.112;2022-09-01T09:38:14;3.05;;;0.95;;
35223;SDS011;21367;51.930;8.112;2022-09-01T09:43:24;6.13;;;0.98;;
35223;SDS011;21367;51.930;8.112;2022-09-01T09:48:30;5.30;;;1.05;;
35223;SDS011;21367;51.930;8.112;2022-09-01T09:53:38;8.30;;;1.10;;
35223;SDS011;21367;51.930;8.112;2022-09-01T09:58:45;7.13;;;1.85;;
35223;SDS011;21367;51.930;8.112;2022-09-01T10:03:51;7.18;;;1.20;;
35223;SDS011;21367;51.930;8.112;2022-09-01T10:08:56;6.53;;;1.00;;
35223;SDS011;21367;51.930;8.112;2022-09-01T10:14:03;4.80;;;1.00;;
35223;SDS011;21367;51.930;8.112;2022-09-01T10:19:10;6.65;;;1.10;;
35223;SDS011;21367;51.930;8.112;2022-09-01T10:24:17;4.70;;;1.05;;
35223;SDS011;21367;51.930;8.112;2022-09-01T10:29:33;4.13;;;1.00;;
35223;SDS011;21367;51.930;8.112;2022-09-01T10:34:42;3.25;;;1.02;;
35223;SDS011;21367;51.930;8.112;2022-09-01T10:45:33;3.42;;;1.00;;
35223;SDS011;21367;51.930;8.112;2022-09-01T10:50:39;4.60;;;0.90;;
35223;SDS011;21367;51.930;8.112;2022-09-01T10:55:43;4.10;;;1.00;;
35223;SDS011;21367;51.930;8.112;2022-09-01T11:00:53;4.90;;;0.80;;
35223;SDS011;21367;51.930;8.112;2022-09-01T11:06:00;2.42;;;1.02;;
35223;SDS011;21367;51.930;8.112;2022-09-01T11:11:05;3.27;;;1.00;;
35223;SDS011;21367;51.930;8.112;2022-09-01T11:21:44;2.25;;;0.98;;
35223;SDS011;21367;51.930;8.112;2022-09-01T11:26:48;5.95;;;1.55;;
35223;SDS011;21367;51.930;8.112;2022-09-01T11:31:54;2.35;;;0.70;;
35223;SDS011;21367;51.930;8.112;2022-09-01T11:36:59;2.55;;;0.80;;
35223;SDS011;21367;51.930;8.112;2022-09-01T11:42:05;6.00;;;0.73;;
35223;SDS011;21367;51.930;8.112;2022-09-01T11:47:17;6.82;;;1.00;;
35223;SDS011;21367;51.930;8.112;2022-09-01T11:52:25;2.70;;;0.80;;
35223;SDS011;21367;51.930;8.112;2022-09-01T11:57:32;1.85;;;0.82;;
35223;SDS011;21367;51.930;8.112;2022-09-01T12:02:44;2.35;;;1.02;;
35223;SDS011;21367;51.930;8.112;2022-09-01T12:07:50;4.72;;;0.80;;
35223;SDS011;21367;51.930;8.112;2022-09-01T12:13:05;2.73;;;0.87;;
35223;SDS011;21367;51.930;8.112;2022-09-01T12:18:16;3.65;;;0.98;;
35223;SDS011;21367;51.930;8.112;2022-09-01T12:23:23;1.30;;;0.70;;
35223;SDS011;21367;51.930;8.112;2022-09-01T12:28:29;4.75;;;0.85;;
35223;SDS011;21367;51.930;8.112;2022-09-01T12:33:38;3.40;;;0.80;;
35223;SDS011;21367;51.930;8.112;2022-09-01T12:38:42;2.13;;;1.00;;
35223;SDS011;21367;51.930;8.112;2022-09-01T12:43:45;5.00;;;0.82;;
35223;SDS011;21367;51.930;8.112;2022-09-01T12:48:52;5.05;;;1.02;;
35223;SDS011;21367;51.930;8.112;2022-09-01T12:53:56;2.22;;;0.93;;
35223;SDS011;21367;51.930;8.112;2022-09-01T12:59:06;4.32;;;1.05;;
35223;SDS011;21367;51.930;8.112;2022-09-01T13:04:26;5.20;;;0.70;;
35223;SDS011;21367;51.930;8.112;2022-09-01T13:09:33;2.35;;;0.80;;
35223;SDS011;21367;51.930;8.112;2022-09-01T13:14:37;2.60;;;0.80;;
35223;SDS011;21367;51.930;8.112;2022-09-01T13:19:44;3.38;;;0.93;;
35223;SDS011;21367;51.930;8.112;2022-09-01T13:24:47;6.60;;;1.20;;
35223;SDS011;21367;51.930;8.112;2022-09-01T13:29:52;10.93;;;1.00;;
35223;SDS011;21367;51.930;8.112;2022-09-01T13:34:58;8.40;;;1.25;;
35223;SDS011;21367;51.930;8.112;2022-09-01T13:40:03;4.32;;;0.90;;
35223;SDS011;21367;51.930;8.112;2022-09-01T13:45:09;8.15;;;0.90;;
35223;SDS011;21367;51.930;8.112;2022-09-01T13:50:19;3.22;;;1.05;;
35223;SDS011;21367;51.930;8.112;2022-09-01T13:55:25;5.60;;;0.73;;
35223;SDS011;21367;51.930;8.112;2022-09-01T14:00:32;6.72;;;0.70;;
35223;SDS011;21367;51.930;8.112;2022-09-01T14:05:40;4.15;;;1.00;;
35223;SDS011;21367;51.930;8.112;2022-09-01T14:10:46;6.72;;;1.33;;
35223;SDS011;21367;51.930;8.112;2022-09-01T14:15:51;4.53;;;1.20;;
35223;SDS011;21367;51.930;8.112;2022-09-01T14:20:58;5.03;;;0.87;;
35223;SDS011;21367;51.930;8.112;2022-09-01T14:26:06;2.97;;;0.93;;
35223;SDS011;21367;51.930;8.112;2022-09-01T14:31:11;1.10;;;0.85;;
35223;SDS011;21367;51.930;8.112;2022-09-01T14:36:20;10.07;;;1.20;;
35223;SDS011;21367;51.930;8.112;2022-09-01T14:41:26;2.20;;;1.00;;
35223;SDS011;21367;51.930;8.112;2022-09-01T14:46:31;1.40;;;0.68;;
35223;SDS011;21367;51.930;8.112;2022-09-01T14:56:42;6.03;;;0.93;;
35223;SDS011;21367;51.930;8.112;2022-09-01T15:01:47;7.13;;;1.02;;
35223;SDS011;21367;51.930;8.112;2022-09-01T15:06:54;5.80;;;1.33;;
35223;SDS011;21367;51.930;8.112;2022-09-01T15:11:58;3.28;;;0.88;;
35223;SDS011;21367;51.930;8.112;2022-09-01T15:17:02;11.23;;;1.15;;
35223;SDS011;21367;51.930;8.112;2022-09-01T15:22:08;5.07;;;0.90;;
35223;SDS011;21367;51.930;8.112;2022-09-01T15:27:12;2.92;;;0.80;;
35223;SDS011;21367;51.930;8.112;2022-09-01T15:32:17;2.97;;;0.70;;
35223;SDS011;21367;51.930;8.112;2022-09-01T15:37:23;4.75;;;1.13;;
35223;SDS011;21367;51.930;8.112;2022-09-01T15:42:27;6.45;;;0.63;;
35223;SDS011;21367;51.930;8.112;2022-09-01T15:47:31;9.52;;;1.00;;
35223;SDS011;21367;51.930;8.112;2022-09-01T15:52:39;1.55;;;0.82;;
35223;SDS011;21367;51.930;8.112;2022-09-01T15:57:50;2.97;;;0.90;;
35223;SDS011;21367;51.930;8.112;2022-09-01T16:02:54;1.83;;;0.70;;
35223;SDS011;21367;51.930;8.112;2022-09-01T16:08:04;5.57;;;0.90;;
35223;SDS011;21367;51.930;8.112;2022-09-01T16:13:10;4.32;;;0.80;;
35223;SDS011;21367;51.930;8.112;2022-09-01T16:18:17;2.15;;;0.75;;
35223;SDS011;21367;51.930;8.112;2022-09-01T16:23:36;1.20;;;0.77;;
35223;SDS011;21367;51.930;8.112;2022-09-01T16:28:44;5.63;;;0.90;;
35223;SDS011;21367;51.930;8.112;2022-09-01T16:33:53;4.88;;;0.95;;
35223;SDS011;21367;51.930;8.112;2022-09-01T16:39:05;4.15;;;0.90;;
35223;SDS011;21367;51.930;8.112;2022-09-01T16:44:22;4.10;;;0.73;;
35223;SDS011;21367;51.930;8.112;2022-09-01T16:49:33;7.90;;;1.10;;
35223;SDS011;21367;51.930;8.112;2022-09-01T16:54:51;6.50;;;1.02;;
35223;SDS011;21367;51.930;8.112;2022-09-01T17:00:06;7.63;;;1.33;;
35223;SDS011;21367;51.930;8.112;2022-09-01T17:05:15;5.18;;;0.70;;
35223;SDS011;21367;51.930;8.112;2022-09-01T17:10:31;8.88;;;1.08;;
35223;SDS011;21367;51.930;8.112;2022-09-01T17:15:41;1.70;;;0.55;;
35223;SDS011;21367;51.930;8.112;2022-09-01T17:20:48;6.32;;;1.30;;
35223;SDS011;21367;51.930;8.112;2022-09-01T17:26:00;13.63;;;1.08;;
35223;SDS011;21367;51.930;8.112;2022-09-01T17:31:08;13.90;;;1.20;;
35223;SDS011;21367;51.930;8.112;2022-09-01T17:36:17;1.45;;;0.70;;
35223;SDS011;21367;51.930;8.112;2022-09-01T17:41:32;3.67;;;1.00;;
35223;SDS011;21367;51.930;8.112;2022-09-01T17:46:41;5.85;;;0.85;;
35223;SDS011;21367;51.930;8.112;2022-09-01T17:51:55;5.22;;;1.05;;
35223;SDS011;21367;51.930;8.112;2022-09-01T17:57:11;2.17;;;0.80;;
35223;SDS011;21367;51.930;8.112;2022-09-01T18:02:30;8.25;;;1.02;;
35223;SDS011;21367;51.930;8.112;2022-09-01T18:07:54;7.25;;;0.70;;
35223;SDS011;21367;51.930;8.112;2022-09-01T18:13:15;1.92;;;0.90;;
35223;SDS011;21367;51.930;8.112;2022-09-01T18:18:26;11.45;;;0.75;;
35223;SDS011;21367;51.930;8.112;2022-09-01T18:23:35;5.45;;;0.82;;
35223;SDS011;21367;51.930;8.112;2022-09-01T18:28:46;3.63;;;0.68;;
35223;SDS011;21367;51.930;8.112;2022-09-01T18:33:57;27.00;;;1.05;;
35223;SDS011;21367;51.930;8.112;2022-09-01T18:39:11;25.55;;;1.27;;
35223;SDS011;21367;51.930;8.112;2022-09-01T18:44:26;12.35;;;1.15;;
35223;SDS011;21367;51.930;8.112;2022-09-01T18:49:41;21.13;;;1.40;;
35223;SDS011;21367;51.930;8.112;2022-09-01T18:54:55;7.53;;;0.82;;
35223;SDS011;21367;51.930;8.112;2022-09-01T19:00:10;6.00;;;0.80;;
35223;SDS011;21367;51.930;8.112;2022-09-01T19:05:21;2.85;;;0.70;;
35223;SDS011;21367;51.930;8.112;2022-09-01T19:10:33;4.55;;;0.77;;
35223;SDS011;21367;51.930;8.112;2022-09-01T19:15:48;4.43;;;1.20;;
35223;SDS011;21367;51.930;8.112;2022-09-01T19:21:00;8.45;;;0.90;;
35223;SDS011;21367;51.930;8.112;2022-09-01T19:26:10;6.43;;;0.40;;
35223;SDS011;21367;51.930;8.112;2022-09-01T19:31:24;11.35;;;0.90;;
35223;SDS011;21367;51.930;8.112;2022-09-01T19:36:32;5.47;;;0.68;;
35223;SDS011;21367;51.930;8.112;2022-09-01T19:41:42;2.58;;;0.70;;
35223;SDS011;21367;51.930;8.112;2022-09-01T19:46:54;1.73;;;0.80;;
35223;SDS011;21367;51.930;8.112;2022-09-01T19:52:04;4.80;;;0.80;;
35223;SDS011;21367;51.930;8.112;2022-09-01T19:57:12;3.28;;;0.70;;
35223;SDS011;21367;51.930;8.112;2022-09-01T20:02:28;4.43;;;0.82;;
35223;SDS011;21367;51.930;8.112;2022-09-01T20:07:35;1.77;;;0.88;;
35223;SDS011;21367;51.930;8.112;2022-09-01T20:12:45;3.95;;;0.70;;
35223;SDS011;21367;51.930;8.112;2022-09-01T20:18:01;3.45;;;0.65;;
35223;SDS011;21367;51.930;8.112;2022-09-01T20:23:08;4.13;;;0.80;;
35223;SDS011;21367;51.930;8.112;2022-09-01T20:28:18;5.00;;;0.80;;
35223;SDS011;21367;51.930;8.112;2022-09-01T20:38:44;2.03;;;0.50;;
35223;SDS011;21367;51.930;8.112;2022-09-01T20:44:05;3.97;;;0.73;;
35223;SDS011;21367;51.930;8.112;2022-09-01T20:49:19;1.08;;;0.55;;
35223;SDS011;21367;51.930;8.112;2022-09-01T20:54:27;1.85;;;0.70;;
35223;SDS011;21367;51.930;8.112;2022-09-01T20:59:40;1.40;;;0.40;;
35223;SDS011;21367;51.930;8.112;2022-09-01T21:04:54;3.05;;;1.08;;
35223;SDS011;21367;51.930;8.112;2022-09-01T21:10:16;2.88;;;0.63;;
35223;SDS011;21367;51.930;8.112;2022-09-01T21:15:31;6.35;;;0.60;;
35223;SDS011;21367;51.930;8.112;2022-09-01T21:20:51;1.20;;;0.55;;
35223;SDS011;21367;51.930;8.112;2022-09-01T21:26:02;10.00;;;0.70;;
35223;SDS011;21367;51.930;8.112;2022-09-01T21:31:06;1.48;;;0.60;;
35223;SDS011;21367;51.930;8.112;2022-09-01T21:36:13;1.40;;;0.57;;
35223;SDS011;21367;51.930;8.112;2022-09-01T21:41:16;3.35;;;0.45;;
35223;SDS011;21367;51.930;8.112;2022-09-01T21:46:20;1.23;;;0.43;;
35223;SDS011;21367;51.930;8.112;2022-09-01T21:51:26;5.35;;;0.60;;
35223;SDS011;21367;51.930;8.112;2022-09-01T21:56:30;3.75;;;0.70;;
35223;SDS011;21367;51.930;8.112;2022-09-01T22:01:34;5.07;;;0.65;;
35223;SDS011;21367;51.930;8.112;2022-09-01T22:06:40;1.10;;;0.50;;
35223;SDS011;21367;51.930;8.112;2022-09-01T22:11:44;5.07;;;0.70;;
35223;SDS011;21367;51.930;8.112;2022-09-01T22:16:48;3.83;;;0.50;;
35223;SDS011;21367;51.930;8.112;2022-09-01T22:21:54;4.57;;;0.60;;
35223;SDS011;21367;51.930;8.112;2022-09-01T22:26:58;11.25;;;0.70;;
35223;SDS011;21367;51.930;8.112;2022-09-01T22:32:02;3.42;;;0.75;;
35223;SDS011;21367;51.930;8.112;2022-09-01T22:37:09;2.08;;;0.52;;
35223;SDS011;21367;51.930;8.112;2022-09-01T22:42:13;7.80;;;0.77;;
35223;SDS011;21367;51.930;8.112;2022-09-01T22:47:16;4.72;;;0.70;;
35223;SDS011;21367;51.930;8.112;2022-09-01T22:52:23;2.28;;;0.50;;
35223;SDS011;21367;51.930;8.112;2022-09-01T22:57:28;5.68;;;0.93;;
35223;SDS011;21367;51.930;8.112;2022-09-01T23:02:32;2.28;;;0.60;;
35223;SDS011;21367;51.930;8.112;2022-09-01T23:07:38;4.13;;;0.73;;
35223;SDS011;21367;51.930;8.112;2022-09-01T23:17:46;1.10;;;0.50;;
35223;SDS011;21367;51.930;8.112;2022-09-01T23:22:52;3.50;;;0.57;;
35223;SDS011;21367;51.930;8.112;2022-09-01T23:33:00;5.50;;;0.70;;
35223;SDS011;21367;51.930;8.112;2022-09-01T23:38:07;3.47;;;0.60;;
35223;SDS011;21367;51.930;8.112;2022-09-01T23:43:11;1.10;;;0.30;;
35223;SDS011;21367;51.930;8.112;2022-09-01T23:48:15;2.38;;;0.77;;
35223;SDS011;21367;51.930;8.112;2022-09-01T23:53:23;9.10;;;0.80;;
35223;SDS011;21367;51.930;8.112;2022-09-01T23:58:29;4.10;;;0.68;;
